Alert Bay, Canada
Current Conditions -  °F | °C
As of 4:00 PM on Wednesday 22 Oct 2014 (Local Time) from CYZT Reporting Station
Rain Showers Rain Showers  
Wind Chill: 50°   Ceiling: 3400
Heat Index: 50°   Visibility: 10mi
Dew Point: 46°   Wind: 6mph
Humidity: 87%   Direction: 30°NNE
Pressure: 29.5"   Gusts: NA
Location:  50.58°N, 126.92°W
Report Text: CYZT 222300Z 03005KT 10SM -SHRA FEW008 BKN034TCU OVC050 10/08 A2950 RMK ST2TCU4SC2 SLP988
Loading
Personal Weather Stations






























Interactive Weather Map
Tropical Storm Tracking
New forecast layout! Learn more

10-Day Weather Forecast

Advertisements
Track Severe Weather on mobile